Time;durP1;ratioP1;P1;durP2;ratioP2;P2;SDS_P1;SDS_P2;PMS_P1;PMS_P2;Temp;Humidity;BMP_temperature;BMP_pressure;BME280_temperature;BME280_humidity;BME280_pressure;Samples;Min_cycle;Max_cycle;Signal;HPM_P1;HPM_P2
2022/07/11 00:01:05;;;;;;;;;;;;;;;22.25;28.30;97469.47;5018180;28;1008;-82
2022/07/11 00:03:30;;;;;;;;;;;;;;;22.26;27.95;97471.03;5036072;28;931;-82
2022/07/11 00:05:55;;;;;;;;;;;;;;;22.18;28.10;97475.41;5036892;28;856;-82
2022/07/11 00:08:21;;;;;;;;;;;;;;;22.31;28.02;97467.59;5036730;28;862;-81
2022/07/11 00:10:46;;;;;;;;;;;;;;;22.27;28.15;97478.28;5036440;28;1908;-81
2022/07/11 00:13:12;;;;;;;;;;;;;;;22.14;28.37;97474.75;5036788;28;917;-82
2022/07/11 00:15:37;;;;;;;;;;;;;;;22.10;28.41;97485.38;5036350;28;888;-82
2022/07/11 00:18:03;;;;;;;;;;;;;;;22.29;28.18;97481.47;5036440;28;892;-81
2022/07/11 00:20:28;;;;;;;;;;;;;;;22.24;28.04;97490.56;5036365;28;841;-82
2022/07/11 00:22:54;;;;;;;;;;;;;;;22.35;28.13;97490.94;5036092;28;994;-81
2022/07/11 00:25:20;;;;;;;;;;;;;;;22.26;28.09;97482.38;5036656;28;837;-82
2022/07/11 00:27:45;;;;;;;;;;;;;;;22.21;28.08;97490.69;5036192;28;919;-82
2022/07/11 00:30:11;;;;;;;;;;;;;;;22.14;28.27;97480.41;5034005;28;1227;-81
2022/07/11 00:32:36;;;;;;;;;;;;;;;22.24;28.31;97490.56;5033567;28;1910;-82
2022/07/11 00:35:02;;;;;;;;;;;;;;;22.15;28.00;97481.97;5033615;28;922;-82
2022/07/11 00:37:27;;;;;;;;;;;;;;;22.12;28.22;97482.88;5033770;28;1007;-82
2022/07/11 00:39:53;;;;;;;;;;;;;;;22.31;28.24;97490.28;5033754;28;1007;-82
2022/07/11 00:42:18;;;;;;;;;;;;;;;22.25;28.06;97492.13;5033637;28;1006;-82
2022/07/11 00:44:44;;;;;;;;;;;;;;;22.34;27.76;97486.53;5033471;28;909;-83
2022/07/11 00:47:09;;;;;;;;;;;;;;;22.04;28.20;97482.34;5033945;28;1052;-83
2022/07/11 00:49:34;;;;;;;;;;;;;;;22.25;28.09;97488.50;4993809;28;959;-82
2022/07/11 00:52:00;;;;;;;;;;;;;;;22.18;28.40;97492.41;4994209;28;1918;-82
2022/07/11 00:54:25;;;;;;;;;;;;;;;22.33;28.18;97493.47;4994514;28;895;-82
2022/07/11 00:56:51;;;;;;;;;;;;;;;22.31;28.25;97493.09;4977820;28;1032;-82
2022/07/11 00:59:17;;;;;;;;;;;;;;;22.37;28.36;97490.47;4976376;28;912;-82
2022/07/11 01:01:43;;;;;;;;;;;;;;;22.29;28.54;97486.34;4934722;29;996;-81
2022/07/11 01:04:08;;;;;;;;;;;;;;;22.15;28.57;97487.66;4924499;29;961;-83
2022/07/11 01:06:33;;;;;;;;;;;;;;;22.19;28.73;97493.97;4940346;29;851;-81
2022/07/11 01:08:59;;;;;;;;;;;;;;;22.29;28.73;97487.13;4940212;29;1045;-83
2022/07/11 01:11:24;;;;;;;;;;;;;;;22.47;28.33;97491.31;4939636;29;2036;-83
2022/07/11 01:13:51;;;;;;;;;;;;;;;22.23;28.43;97494.66;4921130;29;933;-83
2022/07/11 01:16:17;;;;;;;;;;;;;;;22.24;28.54;97498.25;4939709;29;1223;-83
2022/07/11 01:18:43;;;;;;;;;;;;;;;22.23;28.89;97500.31;4901864;29;957;-82
2022/07/11 01:21:10;;;;;;;;;;;;;;;22.17;29.04;97499.31;4917658;29;938;-82
2022/07/11 01:23:35;;;;;;;;;;;;;;;22.13;29.21;97507.16;4917401;29;989;-82
2022/07/11 01:26:01;;;;;;;;;;;;;;;22.20;29.02;97512.56;4901792;29;913;-83
2022/07/11 01:28:27;;;;;;;;;;;;;;;22.15;29.17;97515.97;4901653;29;867;-82
2022/07/11 01:30:52;;;;;;;;;;;;;;;22.26;28.90;97518.41;4901723;29;1940;-83
2022/07/11 01:33:18;;;;;;;;;;;;;;;22.14;29.01;97511.56;4930290;29;1001;-82
2022/07/11 01:35:43;;;;;;;;;;;;;;;22.32;28.34;97525.06;4943095;28;1056;-82
2022/07/11 01:38:09;;;;;;;;;;;;;;;22.22;28.92;97521.38;4978156;28;951;-82
2022/07/11 01:40:34;;;;;;;;;;;;;;;22.38;28.26;97522.44;4978370;28;986;-82
2022/07/11 01:43:00;;;;;;;;;;;;;;;22.08;28.95;97527.56;4977499;28;963;-82
2022/07/11 01:45:25;;;;;;;;;;;;;;;22.12;28.64;97528.22;4992712;28;889;-82
2022/07/11 01:47:51;;;;;;;;;;;;;;;22.26;28.47;97533.38;4995469;28;1152;-82
2022/07/11 01:50:16;;;;;;;;;;;;;;;22.06;28.70;97524.38;4978479;28;943;-82
2022/07/11 01:52:42;;;;;;;;;;;;;;;22.27;28.47;97520.78;4977569;28;1898;-81
2022/07/11 01:55:07;;;;;;;;;;;;;;;22.27;28.60;97529.28;4981167;28;909;-82
2022/07/11 01:57:33;;;;;;;;;;;;;;;22.29;28.59;97532.47;5017064;28;941;-83
2022/07/11 01:59:59;;;;;;;;;;;;;;;22.10;28.97;97525.03;5016775;28;1008;-82
2022/07/11 02:02:24;;;;;;;;;;;;;;;22.13;28.58;97523.38;5016569;28;926;-82
2022/07/11 02:04:50;;;;;;;;;;;;;;;22.09;28.43;97531.97;5045896;28;961;-82
2022/07/11 02:08:11;;;;;;;;;;;;;;;22.14;28.51;97524.94;5056350;28;1064;-82
2022/07/11 02:10:01;;;;;;;;;;;;;;;22.20;28.52;97535.22;5027752;28;1359;-81
2022/07/11 02:12:26;;;;;;;;;;;;;;;22.21;28.55;97536.81;5056077;28;1977;-82
2022/07/11 02:14:51;;;;;;;;;;;;;;;22.09;28.45;97534.78;5056298;28;932;-82
2022/07/11 02:17:17;;;;;;;;;;;;;;;22.20;28.64;97552.22;5056407;28;945;-82
2022/07/11 02:19:42;;;;;;;;;;;;;;;22.23;28.61;97557.00;5056118;28;872;-82
2022/07/11 02:22:08;;;;;;;;;;;;;;;22.30;28.25;97545.38;5035766;28;914;-82
2022/07/11 02:24:33;;;;;;;;;;;;;;;22.23;28.37;97548.50;5036258;28;978;-82
2022/07/11 02:26:59;;;;;;;;;;;;;;;22.16;28.52;97550.78;5002842;28;1193;-81
2022/07/11 02:29:24;;;;;;;;;;;;;;;22.07;28.30;97555.09;5036232;28;947;-82
2022/07/11 02:31:49;;;;;;;;;;;;;;;22.23;28.17;97561.88;5035904;28;1906;-81
2022/07/11 02:34:15;;;;;;;;;;;;;;;22.25;28.31;97565.81;4997840;28;1076;-82
2022/07/11 02:36:40;;;;;;;;;;;;;;;22.20;28.37;97568.44;5022325;28;1325;-81
2022/07/11 02:39:06;;;;;;;;;;;;;;;22.26;28.28;97575.88;5011979;28;1296;-82
2022/07/11 02:41:31;;;;;;;;;;;;;;;22.03;28.55;97579.94;5035471;28;1739;-82
2022/07/11 02:43:57;;;;;;;;;;;;;;;22.12;28.07;97576.41;5035392;28;925;-82
2022/07/11 02:46:22;;;;;;;;;;;;;;;22.01;28.46;97582.41;4995801;28;1005;-83
2022/07/11 02:48:48;;;;;;;;;;;;;;;22.14;28.45;97581.63;4988682;28;1199;-81
2022/07/11 02:51:13;;;;;;;;;;;;;;;22.08;28.09;97589.88;4986360;28;1910;-81
2022/07/11 02:53:38;;;;;;;;;;;;;;;22.13;28.01;97592.16;5032357;28;1233;-81
2022/07/11 02:56:06;;;;;;;;;;;;;;;22.08;28.22;97589.88;5035193;28;990;-81
2022/07/11 02:58:31;;;;;;;;;;;;;;;22.07;27.96;97583.44;5036020;28;911;-79
2022/07/11 03:00:57;;;;;;;;;;;;;;;22.19;27.88;97593.16;5035305;28;1015;-81
2022/07/11 03:03:22;;;;;;;;;;;;;;;22.22;27.75;97589.38;5055487;28;1054;-80
2022/07/11 03:05:47;;;;;;;;;;;;;;;22.27;27.81;97599.34;5054896;28;1004;-81
2022/07/11 03:08:13;;;;;;;;;;;;;;;22.25;28.00;97588.50;5034734;28;973;-81
2022/07/11 03:10:38;;;;;;;;;;;;;;;22.23;27.93;97596.66;5034831;28;1887;-81
2022/07/11 03:13:04;;;;;;;;;;;;;;;22.22;27.78;97597.91;5033391;28;965;-81
2022/07/11 03:15:29;;;;;;;;;;;;;;;21.99;28.12;97598.28;5014668;28;916;-80
2022/07/11 03:17:55;;;;;;;;;;;;;;;22.20;27.92;97608.91;5000998;28;924;-80
2022/07/11 03:20:20;;;;;;;;;;;;;;;22.05;27.73;97605.75;4995228;28;1026;-81
2022/07/11 03:22:46;;;;;;;;;;;;;;;22.14;28.01;97615.63;4994297;28;875;-81
2022/07/11 03:25:11;;;;;;;;;;;;;;;22.05;28.08;97619.13;5009703;28;965;-81
2022/07/11 03:27:36;;;;;;;;;;;;;;;22.05;27.99;97619.13;5015243;28;974;-81
2022/07/11 03:30:03;;;;;;;;;;;;;;;22.08;27.92;97619.00;5014713;28;965;-81
2022/07/11 03:32:28;;;;;;;;;;;;;;;22.00;28.10;97626.16;5031425;28;1985;-82
2022/07/11 03:37:37;;;;;;;;;;;;;;;22.04;27.88;97617.53;5018156;28;1224;-81
2022/07/11 03:40:03;;;;;;;;;;;;;;;22.14;27.64;97621.28;5063628;28;1282;-81
2022/07/11 03:42:28;;;;;;;;;;;;;;;22.24;27.58;97620.91;5068847;28;1229;-81
2022/07/11 03:44:54;;;;;;;;;;;;;;;21.95;28.06;97625.94;5057643;28;908;-81
2022/07/11 03:47:20;;;;;;;;;;;;;;;21.87;28.51;97627.44;5074362;28;1244;-81
2022/07/11 03:49:45;;;;;;;;;;;;;;;22.12;28.00;97624.56;5058102;28;950;-81
2022/07/11 03:52:12;;;;;;;;;;;;;;;22.24;27.87;97632.25;5057194;28;1903;-81
2022/07/11 03:54:37;;;;;;;;;;;;;;;22.11;27.69;97628.66;5074137;28;1131;-81
2022/07/11 03:57:03;;;;;;;;;;;;;;;22.17;28.00;97626.81;5057219;28;1267;-80
2022/07/11 03:59:28;;;;;;;;;;;;;;;22.05;27.99;97624.78;5074129;28;806;-80
2022/07/11 04:01:54;;;;;;;;;;;;;;;22.07;28.08;97623.09;5074021;28;981;-81
2022/07/11 04:04:19;;;;;;;;;;;;;;;22.12;28.21;97627.41;5056841;28;910;-81
2022/07/11 04:06:45;;;;;;;;;;;;;;;22.10;28.04;97632.72;5054820;28;962;-81
2022/07/11 04:09:10;;;;;;;;;;;;;;;22.16;28.16;97636.56;5053875;28;921;-81
2022/07/11 04:11:36;;;;;;;;;;;;;;;22.10;28.26;97635.53;5054256;28;1910;-81
2022/07/11 04:14:02;;;;;;;;;;;;;;;22.15;28.24;97629.31;5053902;28;1002;-81
2022/07/11 04:16:27;;;;;;;;;;;;;;;22.27;27.97;97637.00;5073561;28;1357;-80
2022/07/11 04:18:52;;;;;;;;;;;;;;;22.10;28.41;97627.88;5073804;28;958;-81
2022/07/11 04:21:18;;;;;;;;;;;;;;;21.94;28.74;97635.69;5074041;28;914;-81
2022/07/11 04:23:43;;;;;;;;;;;;;;;22.06;28.69;97632.03;5073666;28;939;-81
2022/07/11 04:26:09;;;;;;;;;;;;;;;22.07;28.47;97636.44;5061015;28;1086;-81
2022/07/11 04:28:34;;;;;;;;;;;;;;;22.15;28.43;97637.81;5053644;28;904;-81
2022/07/11 04:31:00;;;;;;;;;;;;;;;22.10;28.58;97638.38;5053370;28;1957;-81
2022/07/11 04:33:25;;;;;;;;;;;;;;;22.21;28.31;97653.00;5053426;28;842;-81
2022/07/11 04:35:51;;;;;;;;;;;;;;;22.12;28.33;97657.78;5053654;28;948;-80
2022/07/11 04:38:16;;;;;;;;;;;;;;;22.12;28.59;97652.09;5053780;28;938;-81
2022/07/11 04:40:42;;;;;;;;;;;;;;;22.24;28.15;97657.75;5053839;28;1173;-80
2022/07/11 04:43:07;;;;;;;;;;;;;;;21.96;28.74;97658.69;5053775;28;1040;-81
2022/07/11 04:45:33;;;;;;;;;;;;;;;22.22;28.29;97663.06;5033286;28;980;-80
2022/07/11 04:48:01;;;;;;;;;;;;;;;22.10;28.35;97672.38;4972286;28;1078;-81
2022/07/11 04:50:26;;;;;;;;;;;;;;;22.14;28.06;97661.75;4994368;28;1034;-81
2022/07/11 04:52:52;;;;;;;;;;;;;;;22.14;28.14;97664.59;4993717;28;1989;-80
2022/07/11 04:55:17;;;;;;;;;;;;;;;21.89;28.70;97667.44;4994001;28;879;-82
2022/07/11 04:57:43;;;;;;;;;;;;;;;22.01;28.50;97666.59;4994041;28;946;-81
2022/07/11 05:00:08;;;;;;;;;;;;;;;22.19;28.08;97681.00;4974375;28;911;-81
2022/07/11 05:02:34;;;;;;;;;;;;;;;22.12;28.40;97675.56;4974681;28;893;-81
2022/07/11 05:05:00;;;;;;;;;;;;;;;22.03;28.59;97673.41;4974694;28;1742;-81
2022/07/11 05:07:25;;;;;;;;;;;;;;;21.99;28.40;97680.44;4974682;28;967;-82
2022/07/11 05:09:50;;;;;;;;;;;;;;;22.21;28.39;97678.50;4974435;28;1110;-82
2022/07/11 05:12:16;;;;;;;;;;;;;;;22.19;28.13;97675.34;4974516;28;1922;-81
2022/07/11 05:14:41;;;;;;;;;;;;;;;22.10;28.45;97683.72;4974541;28;931;-82
2022/07/11 05:17:07;;;;;;;;;;;;;;;22.19;28.40;97675.34;4974446;28;999;-80
2022/07/11 05:19:32;;;;;;;;;;;;;;;22.05;28.34;97681.44;4974409;28;971;-81
2022/07/11 05:21:58;;;;;;;;;;;;;;;22.17;28.40;97683.50;4976262;28;904;-81
2022/07/11 05:24:23;;;;;;;;;;;;;;;21.98;28.67;97681.69;4994117;28;1009;-82
2022/07/11 05:26:49;;;;;;;;;;;;;;;21.94;28.61;97686.69;4994001;28;972;-79
2022/07/11 05:29:14;;;;;;;;;;;;;;;22.08;28.53;97686.22;4993991;28;949;-81
2022/07/11 05:31:39;;;;;;;;;;;;;;;22.06;28.57;97694.38;5008212;28;1906;-81
2022/07/11 05:34:05;;;;;;;;;;;;;;;22.08;28.56;97692.69;5013763;28;972;-82
2022/07/11 05:36:30;;;;;;;;;;;;;;;22.12;28.21;97692.56;5033123;28;1282;-81
2022/07/11 05:38:56;;;;;;;;;;;;;;;22.03;28.84;97690.41;5032796;28;906;-81
2022/07/11 05:41:21;;;;;;;;;;;;;;;22.21;28.39;97700.38;5032950;28;957;-82
2022/07/11 05:43:47;;;;;;;;;;;;;;;22.38;27.91;97686.84;4999862;28;1031;-81
2022/07/11 05:46:12;;;;;;;;;;;;;;;22.01;28.55;97689.28;5036427;28;909;-82
2022/07/11 05:48:37;;;;;;;;;;;;;;;22.08;28.30;97700.38;5036999;28;998;-80
2022/07/11 05:51:03;;;;;;;;;;;;;;;22.01;28.43;97690.06;5036532;28;2043;-81
2022/07/11 05:53:28;;;;;;;;;;;;;;;22.14;28.46;97695.75;5037781;28;895;-81
2022/07/11 05:55:54;;;;;;;;;;;;;;;22.14;28.66;97701.41;5036420;28;967;-80
2022/07/11 05:58:21;;;;;;;;;;;;;;;22.20;28.62;97698.81;5020031;28;946;-82
2022/07/11 06:00:46;;;;;;;;;;;;;;;22.19;28.36;97702.88;5036734;28;888;-82
2022/07/11 06:03:12;;;;;;;;;;;;;;;22.09;28.61;97702.75;5036400;28;918;-81
2022/07/11 06:05:37;;;;;;;;;;;;;;;22.18;28.35;97699.28;5036451;28;1091;-81
2022/07/11 06:10:47;;;;;;;;;;;;;;;22.22;28.72;97707.63;4996395;28;1981;-82
2022/07/11 06:13:13;;;;;;;;;;;;;;;22.11;28.63;97708.00;4996776;28;1054;-82
2022/07/11 06:15:38;;;;;;;;;;;;;;;22.04;28.54;97723.16;4996690;28;959;-81
2022/07/11 06:18:03;;;;;;;;;;;;;;;22.10;28.70;97717.72;4996908;28;893;-82
2022/07/11 06:20:29;;;;;;;;;;;;;;;22.33;28.31;97719.41;5016306;28;973;-81
2022/07/11 06:22:54;;;;;;;;;;;;;;;22.12;28.64;97729.41;5016028;28;1067;-81
2022/07/11 06:25:20;;;;;;;;;;;;;;;22.05;28.69;97738.13;5016254;28;962;-80
2022/07/11 06:27:45;;;;;;;;;;;;;;;22.20;28.39;97744.16;5016484;28;886;-81
2022/07/11 06:30:11;;;;;;;;;;;;;;;22.13;28.72;97736.69;5036199;28;1005;-81
2022/07/11 06:32:36;;;;;;;;;;;;;;;22.11;28.80;97733.50;5035508;28;1898;-82
2022/07/11 06:35:02;;;;;;;;;;;;;;;22.06;30.45;97737.66;5011179;28;1774;-87
2022/07/11 06:37:27;;;;;;;;;;;;;;;22.53;30.72;97733.28;5026358;28;1509;-72
2022/07/11 06:39:53;;;;;;;;;;;;;;;22.49;31.00;97732.66;5015443;28;1648;-80
2022/07/11 06:42:19;;;;;;;;;;;;;;;22.28;31.00;97743.47;5014655;28;1856;-79
2022/07/11 06:44:44;;;;;;;;;;;;;;;22.14;30.87;97740.31;5015001;28;939;-80
2022/07/11 06:47:09;;;;;;;;;;;;;;;22.21;30.42;97737.22;5014841;28;1041;-80
2022/07/11 06:49:35;;;;;;;;;;;;;;;22.12;30.54;97735.06;5015116;28;981;-80
2022/07/11 06:52:00;;;;;;;;;;;;;;;21.98;30.45;97741.19;5015117;28;1973;-81
2022/07/11 06:54:26;;;;;;;;;;;;;;;21.99;30.28;97746.41;5015121;28;932;-80
2022/07/11 06:56:51;;;;;;;;;;;;;;;22.04;30.02;97757.16;5012259;28;920;-81
2022/07/11 06:59:17;;;;;;;;;;;;;;;21.99;30.18;97759.78;4990208;28;1041;-79
2022/07/11 07:01:43;;;;;;;;;;;;;;;21.95;30.56;97761.91;5016595;28;966;-80
2022/07/11 07:04:08;;;;;;;;;;;;;;;22.20;29.70;97761.94;5035265;28;888;-80
2022/07/11 07:06:34;;;;;;;;;;;;;;;21.93;30.14;97770.88;5036147;28;922;-82
2022/07/11 07:08:59;;;;;;;;;;;;;;;21.88;30.11;97770.66;5015526;28;980;-82
2022/07/11 07:11:24;;;;;;;;;;;;;;;21.66;30.11;97760.00;5015794;28;1906;-82
2022/07/11 07:13:50;;;;;;;;;;;;;;;21.60;30.23;97764.59;5015423;28;981;-82
2022/07/11 07:16:16;;;;;;;;;;;;;;;21.79;29.74;97766.44;5015374;28;863;-82
2022/07/11 07:18:43;;;;;;;;;;;;;;;21.78;29.83;97770.53;5015794;28;990;-83
2022/07/11 07:21:08;;;;;;;;;;;;;;;21.63;29.82;97775.03;5015549;28;908;-82
2022/07/11 07:23:34;;;;;;;;;;;;;;;21.72;29.97;97766.69;5015505;28;814;-81
2022/07/11 07:25:59;;;;;;;;;;;;;;;21.65;29.72;97775.38;5015377;28;847;-82
2022/07/11 07:28:28;;;;;;;;;;;;;;;21.61;29.80;97777.53;5015376;28;940;-82
2022/07/11 07:30:53;;;;;;;;;;;;;;;21.70;29.51;97771.19;5015175;28;1906;-82
2022/07/11 07:33:19;;;;;;;;;;;;;;;21.62;29.57;97773.47;4999632;28;908;-81
2022/07/11 07:35:44;;;;;;;;;;;;;;;21.66;29.80;97767.66;4995414;28;857;-82
2022/07/11 07:38:10;;;;;;;;;;;;;;;21.56;29.89;97778.09;4995167;28;973;-80
2022/07/11 07:40:35;;;;;;;;;;;;;;;21.51;29.95;97779.44;4995219;28;931;-80
2022/07/11 07:43:01;;;;;;;;;;;;;;;21.75;29.09;97776.28;4994959;28;970;-80
2022/07/11 07:45:26;;;;;;;;;;;;;;;21.76;29.32;97780.72;4997140;28;987;-80
2022/07/11 07:47:52;;;;;;;;;;;;;;;21.47;29.58;97777.97;5048634;28;1130;-79
2022/07/11 07:50:17;;;;;;;;;;;;;;;21.47;29.81;97783.63;5016826;28;956;-79
2022/07/11 07:52:43;;;;;;;;;;;;;;;21.55;29.49;97790.63;5048861;28;1918;-80
2022/07/11 07:55:10;;;;;;;;;;;;;;;21.64;29.32;97782.28;5017375;28;1069;-78
2022/07/11 07:57:35;;;;;;;;;;;;;;;21.59;29.34;97791.34;5017322;28;945;-80
2022/07/11 08:02:46;;;;;;;;;;;;;;;21.55;29.26;97790.63;5017154;28;834;-82
2022/07/11 08:05:12;;;;;;;;;;;;;;;21.54;29.36;97784.19;5017825;28;744;-82
2022/07/11 08:07:37;;;;;;;;;;;;;;;21.63;29.18;97786.38;5016956;28;909;-82
2022/07/11 08:10:06;;;;;;;;;;;;;;;21.67;28.95;97787.06;5016994;28;1002;-81
2022/07/11 08:12:31;;;;;;;;;;;;;;;21.61;29.26;97788.88;5017629;28;1898;-82
2022/07/11 08:14:57;;;;;;;;;;;;;;;21.61;29.08;97794.53;5017525;28;969;-82
2022/07/11 08:17:22;;;;;;;;;;;;;;;21.76;28.67;97790.03;5017646;28;859;-82
2022/07/11 08:19:47;;;;;;;;;;;;;;;21.47;29.16;97794.94;5017572;28;793;-82
2022/07/11 08:22:13;;;;;;;;;;;;;;;21.57;29.07;97793.84;5017559;28;830;-82
2022/07/11 08:24:38;;;;;;;;;;;;;;;21.75;28.71;97794.06;5017722;28;820;-82
2022/07/11 08:27:04;;;;;;;;;;;;;;;21.65;29.00;97794.41;5032835;28;1281;-82
2022/07/11 08:29:29;;;;;;;;;;;;;;;21.53;29.10;97787.47;5017924;28;768;-82
2022/07/11 08:31:55;;;;;;;;;;;;;;;21.56;29.30;97780.94;5049027;28;1969;-82
2022/07/11 08:34:20;;;;;;;;;;;;;;;21.50;29.36;97794.84;5017518;28;704;-82
2022/07/11 08:36:45;;;;;;;;;;;;;;;21.43;29.49;97777.25;5017548;28;779;-82
2022/07/11 08:39:11;;;;;;;;;;;;;;;21.57;29.53;97788.97;5017139;28;766;-83
2022/07/11 08:41:37;;;;;;;;;;;;;;;21.57;29.53;97793.84;5016870;28;775;-82
2022/07/11 08:44:03;;;;;;;;;;;;;;;21.67;29.22;97789.09;5048938;28;859;-81
2022/07/11 08:46:28;;;;;;;;;;;;;;;21.56;29.31;97792.25;5048540;28;964;-82
2022/07/11 08:48:54;;;;;;;;;;;;;;;21.71;29.33;97784.91;5048121;28;1260;-81
2022/07/11 08:51:20;;;;;;;;;;;;;;;21.61;29.38;97794.53;5016431;28;1902;-81
2022/07/11 08:53:45;;;;;;;;;;;;;;;21.55;29.27;97791.47;5050323;28;1725;-82
2022/07/11 08:56:14;;;;;;;;;;;;;;;21.50;29.63;97794.84;5034327;28;788;-82
2022/07/11 08:58:41;;;;;;;;;;;;;;;21.37;30.05;97796.84;5033893;28;902;-83
2022/07/11 09:01:07;;;;;;;;;;;;;;;21.55;29.69;97796.31;5053961;28;908;-82
2022/07/11 09:03:32;;;;;;;;;;;;;;;21.39;29.87;97794.34;5054087;28;1341;-82
2022/07/11 09:05:57;;;;;;;;;;;;;;;21.53;29.64;97788.25;5054302;28;1136;-82
2022/07/11 09:08:23;;;;;;;;;;;;;;;21.46;29.50;97787.69;5054423;28;838;-82
2022/07/11 09:10:48;;;;;;;;;;;;;;;21.44;29.73;97790.97;5053891;28;980;-82
2022/07/11 09:13:15;;;;;;;;;;;;;;;21.55;29.41;97796.31;5014543;28;1918;-82
2022/07/11 09:15:45;;;;;;;;;;;;;;;21.56;29.27;97781.72;5014239;28;1025;-81
2022/07/11 09:18:29;;;;;;;;;;;;;;;21.51;29.41;97795.63;5014009;28;849;-83
2022/07/11 09:26:24;;;;;;;;;;;;;;;21.47;29.84;97789.28;4921010;29;907;-83
2022/07/11 09:29:24;;;;;;;;;;;;;;;21.62;29.72;97789.66;4921191;29;827;-82
2022/07/11 09:31:49;;;;;;;;;;;;;;;21.37;30.07;97785.50;4921447;29;1903;-83
2022/07/11 09:34:15;;;;;;;;;;;;;;;21.39;29.86;97794.34;4920963;29;994;-82
2022/07/11 09:36:47;;;;;;;;;;;;;;;21.69;29.35;97778.91;4920907;29;874;-83
2022/07/11 09:39:16;;;;;;;;;;;;;;;21.44;29.95;97788.13;4906406;29;840;-82
2022/07/11 09:41:41;;;;;;;;;;;;;;;21.47;29.72;97795.72;4901768;29;889;-82
2022/07/11 09:44:08;;;;;;;;;;;;;;;21.57;29.47;97791.00;4910672;29;913;-83
2022/07/11 09:46:33;;;;;;;;;;;;;;;21.57;29.53;97788.16;4929336;29;1029;-82
2022/07/11 09:49:01;;;;;;;;;;;;;;;21.44;29.80;97795.81;4978689;28;1220;-82
2022/07/11 09:51:27;;;;;;;;;;;;;;;21.42;30.10;97792.66;4989920;28;1898;-82
2022/07/11 09:53:56;;;;;;;;;;;;;;;21.43;29.87;97788.59;5036872;28;944;-82
2022/07/11 09:56:25;;;;;;;;;;;;;;;21.57;29.75;97791.00;4997410;28;1219;-82
2022/07/11 09:58:58;;;;;;;;;;;;;;;21.64;29.32;97793.59;4997639;28;926;-82
2022/07/11 10:01:23;;;;;;;;;;;;;;;21.79;29.11;97800.44;4981115;28;996;-81
2022/07/11 10:03:49;;;;;;;;;;;;;;;21.57;29.42;97800.28;4981105;28;833;-81
2022/07/11 10:06:14;;;;;;;;;;;;;;;21.50;29.45;97799.69;4977662;28;906;-82
2022/07/11 10:08:40;;;;;;;;;;;;;;;21.54;29.55;97797.56;4891291;29;1248;-82
2022/07/11 10:11:05;;;;;;;;;;;;;;;21.51;29.70;97795.63;4901331;29;1919;-82
2022/07/11 10:13:31;;;;;;;;;;;;;;;21.43;29.56;97795.03;4900992;29;1000;-83
2022/07/11 10:15:56;;;;;;;;;;;;;;;21.44;29.53;97793.78;4885016;29;1776;-83
2022/07/11 10:18:27;;;;;;;;;;;;;;;21.42;29.88;97798.31;4882268;29;944;-82
2022/07/11 10:20:56;;;;;;;;;;;;;;;21.55;29.28;97802.78;4882566;29;905;-82
2022/07/11 10:23:21;;;;;;;;;;;;;;;21.36;29.82;97794.47;4883008;29;780;-83
2022/07/11 10:25:52;;;;;;;;;;;;;;;21.55;29.53;97793.47;4882362;29;946;-82
2022/07/11 10:28:30;;;;;;;;;;;;;;;21.56;29.70;97787.38;4931580;29;1392;-82
2022/07/11 10:30:59;;;;;;;;;;;;;;;21.40;29.74;97790.28;4935464;29;2046;-83
2022/07/11 10:33:25;;;;;;;;;;;;;;;21.44;29.51;97790.16;4919923;29;893;-82
2022/07/11 10:35:50;;;;;;;;;;;;;;;21.43;29.65;97794.25;4919900;29;876;-82
2022/07/11 10:38:16;;;;;;;;;;;;;;;21.41;29.68;97791.88;4937626;29;962;-83
2022/07/11 10:40:48;;;;;;;;;;;;;;;21.53;29.65;97784.66;4935523;29;970;-82
2022/07/11 10:43:32;;;;;;;;;;;;;;;21.42;29.65;97795.50;4919814;29;879;-82
2022/07/11 10:45:59;;;;;;;;;;;;;;;21.52;29.58;97798.00;4943369;28;901;-82
2022/07/11 10:48:25;;;;;;;;;;;;;;;21.61;29.66;97799.41;4958738;29;1266;-83
2022/07/11 10:51:10;;;;;;;;;;;;;;;21.62;29.38;97795.31;4975790;28;954;-82
2022/07/11 10:53:45;;;;;;;;;;;;;;;21.50;29.51;97788.38;5036308;28;889;-81
2022/07/11 10:56:29;;;;;;;;;;;;;;;21.56;29.36;97797.91;5019559;28;1723;-82
2022/07/11 10:59:15;;;;;;;;;;;;;;;21.63;29.50;97786.38;5035967;28;903;-82
2022/07/11 11:01:59;;;;;;;;;;;;;;;21.57;29.53;97793.84;4996194;28;1142;-81
2022/07/11 11:04:44;;;;;;;;;;;;;;;21.45;29.67;97788.91;4996463;28;954;-82
2022/07/11 11:07:32;;;;;;;;;;;;;;;21.58;29.46;97801.06;4976842;28;1091;-82
2022/07/11 11:09:58;;;;;;;;;;;;;;;21.55;29.37;97799.94;4961079;28;1049;-82
2022/07/11 11:12:46;;;;;;;;;;;;;;;21.40;29.96;97795.13;4953280;29;1977;-82
2022/07/11 11:15:30;;;;;;;;;;;;;;;21.44;29.84;97796.63;4900662;29;937;-83
2022/07/11 11:17:55;;;;;;;;;;;;;;;21.57;29.84;97802.31;4900234;29;1113;-83
2022/07/11 11:20:30;;;;;;;;;;;;;;;21.54;29.56;97800.38;4900307;29;925;-82
2022/07/11 11:23:08;;;;;;;;;;;;;;;21.51;29.55;97792.81;4881430;29;904;-81
2022/07/11 11:25:33;;;;;;;;;;;;;;;21.44;29.69;97795.81;4866137;29;994;-82
2022/07/11 11:28:03;;;;;;;;;;;;;;;21.46;29.63;97799.03;4865778;29;944;-82
2022/07/11 11:30:28;;;;;;;;;;;;;;;21.54;29.77;97795.50;4871619;29;972;-82
2022/07/11 11:32:54;;;;;;;;;;;;;;;21.44;29.54;97807.94;4856686;29;1903;-82
2022/07/11 11:35:19;;;;;;;;;;;;;;;21.43;29.85;97799.91;4826050;29;766;-82
2022/07/11 11:37:45;;;;;;;;;;;;;;;21.33;30.12;97791.28;4827443;29;1214;-82
2022/07/11 11:40:10;;;;;;;;;;;;;;;21.47;29.58;97797.78;4859549;29;1024;-82
2022/07/11 11:42:36;;;;;;;;;;;;;;;21.73;29.04;97796.56;4865400;29;1445;-82
2022/07/11 11:45:03;;;;;;;;;;;;;;;21.51;29.54;97806.97;4896635;29;1062;-82
2022/07/11 11:47:29;;;;;;;;;;;;;;;21.39;29.98;97802.03;4902619;29;1112;-82
2022/07/11 11:49:54;;;;;;;;;;;;;;;21.38;30.05;97808.94;4902959;29;1007;-82
2022/07/11 11:52:20;;;;;;;;;;;;;;;21.44;29.53;97801.50;4940147;29;1918;-81
2022/07/11 11:54:52;;;;;;;;;;;;;;;21.61;29.27;97811.50;4973483;28;953;-83
2022/07/11 11:57:18;;;;;;;;;;;;;;;21.65;29.20;97809.34;4976048;28;973;-82
2022/07/11 11:59:44;;;;;;;;;;;;;;;21.54;29.48;97806.03;4992380;28;1445;-83
2022/07/11 12:02:10;;;;;;;;;;;;;;;21.33;29.84;97798.97;4976223;28;933;-82
2022/07/11 12:04:36;;;;;;;;;;;;;;;21.50;29.53;97811.00;5036651;28;812;-82
2022/07/11 12:07:02;;;;;;;;;;;;;;;21.63;29.41;97809.00;5017217;28;874;-81
2022/07/11 12:14:55;;;;;;;;;;;;;;;21.51;30.10;97823.94;5029985;28;913;-80
2022/07/11 12:17:29;;;;;;;;;;;;;;;21.64;29.87;97821.91;5034123;28;898;-82
2022/07/11 12:19:54;;;;;;;;;;;;;;;21.50;29.80;97817.50;5034482;28;953;-82
2022/07/11 12:22:19;;;;;;;;;;;;;;;21.47;30.20;97820.41;5034724;28;895;-82
2022/07/11 12:24:48;;;;;;;;;;;;;;;21.53;29.79;97827.91;5014453;28;1024;-82
2022/07/11 12:27:20;;;;;;;;;;;;;;;21.70;29.72;97814.47;5014647;28;798;-82
2022/07/11 12:29:50;;;;;;;;;;;;;;;21.57;29.56;97819.31;5014877;28;916;-82
2022/07/11 12:32:15;;;;;;;;;;;;;;;21.54;29.77;97806.03;5014206;28;1898;-83
2022/07/11 12:34:44;;;;;;;;;;;;;;;21.49;29.75;97806.59;5014786;28;964;-83
2022/07/11 12:37:12;;;;;;;;;;;;;;;21.38;30.19;97808.94;5014664;28;926;-83
2022/07/11 12:39:39;;;;;;;;;;;;;;;21.37;29.92;97807.38;5014321;28;958;-81
2022/07/11 12:42:28;;;;;;;;;;;;;;;21.58;29.77;97812.41;5014624;28;921;-82
2022/07/11 12:45:07;;;;;;;;;;;;;;;21.59;29.52;97813.97;4955898;29;1048;-83
2022/07/11 12:47:32;;;;;;;;;;;;;;;21.58;29.69;97812.41;4955660;29;1059;-82
2022/07/11 12:49:58;;;;;;;;;;;;;;;21.41;29.93;97803.19;4956708;29;939;-83
2022/07/11 12:52:23;;;;;;;;;;;;;;;21.37;30.33;97794.00;4956116;29;1965;-82
2022/07/11 12:54:50;;;;;;;;;;;;;;;21.42;29.90;97803.97;4961066;28;902;-82
2022/07/11 12:57:17;;;;;;;;;;;;;;;21.54;29.84;97806.03;4962459;29;1094;-83
2022/07/11 12:59:42;;;;;;;;;;;;;;;21.57;29.73;97799.50;4981685;28;951;-83
2022/07/11 13:02:08;;;;;;;;;;;;;;;21.53;29.77;97805.25;4981829;28;939;-83
2022/07/11 13:04:40;;;;;;;;;;;;;;;21.59;29.66;97809.13;4981642;28;946;-82
2022/07/11 13:10:09;;;;;;;;;;;;;;;21.59;29.40;97803.44;4981962;28;1045;-82
2022/07/11 13:12:34;;;;;;;;;;;;;;;21.68;29.32;97808.47;4923714;29;1899;-83
2022/07/11 13:15:08;;;;;;;;;;;;;;;21.64;29.55;97798.47;4923977;29;971;-82
2022/07/11 13:17:34;;;;;;;;;;;;;;;21.58;29.63;97806.75;4924116;29;881;-82
2022/07/11 13:20:00;;;;;;;;;;;;;;;21.51;29.75;97802.09;4924221;29;1080;-83
2022/07/11 13:22:25;;;;;;;;;;;;;;;21.46;29.85;97804.69;4951406;29;960;-81